createdAt,value
2019-06-10T00:02:12.561Z,9.90
2019-06-10T00:04:41.556Z,7.78
2019-06-10T00:07:11.892Z,6.20
2019-06-10T00:09:40.731Z,7.62
2019-06-10T00:12:10.089Z,9.35
2019-06-10T00:14:38.974Z,11.35
2019-06-10T00:17:08.043Z,8.18
2019-06-10T00:19:36.281Z,7.70
2019-06-10T00:22:06.601Z,10.32
2019-06-10T00:24:34.416Z,11.30
2019-06-10T00:27:05.155Z,8.13
2019-06-10T00:29:32.555Z,11.28
2019-06-10T00:32:03.345Z,7.47
2019-06-10T00:34:31.579Z,8.40
2019-06-10T00:37:02.657Z,8.15
2019-06-10T00:39:31.293Z,7.80
2019-06-10T00:42:02.557Z,8.20
2019-06-10T00:44:31.095Z,8.95
2019-06-10T00:47:00.699Z,7.65
2019-06-10T00:49:31.577Z,9.08
2019-06-10T00:52:01.551Z,8.03
2019-06-10T00:54:31.214Z,9.68
2019-06-10T00:57:01.204Z,8.70
2019-06-10T00:59:31.087Z,7.75
2019-06-10T01:02:01.252Z,9.28
2019-06-10T01:04:28.929Z,9.03
2019-06-10T01:06:57.132Z,7.75
2019-06-10T01:09:25.328Z,7.40
2019-06-10T01:11:53.532Z,7.80
2019-06-10T01:14:21.848Z,7.37
2019-06-10T01:16:50.615Z,8.25
2019-06-10T01:19:21.667Z,8.50
2019-06-10T01:21:51.104Z,6.53
2019-06-10T01:24:18.929Z,8.73
2019-06-10T01:26:47.132Z,7.20
2019-06-10T01:29:15.662Z,9.43
2019-06-10T01:31:43.917Z,9.65
2019-06-10T01:34:13.594Z,9.20
2019-06-10T01:36:42.143Z,8.58
2019-06-10T01:39:11.996Z,8.35
2019-06-10T01:41:40.947Z,10.18
2019-06-10T01:44:11.529Z,9.63
2019-06-10T01:46:41.054Z,8.53
2019-06-10T01:49:11.585Z,8.93
2019-06-10T01:51:41.138Z,11.35
2019-06-10T01:54:10.026Z,8.80
2019-06-10T01:56:40.876Z,9.80
2019-06-10T01:59:11.038Z,8.53
2019-06-10T02:01:49.084Z,8.38
2019-06-10T02:04:18.236Z,8.75
2019-06-10T02:06:47.225Z,7.42
2019-06-10T02:09:16.810Z,9.05
2019-06-10T02:11:45.401Z,7.97
2019-06-10T02:14:17.454Z,8.93
2019-06-10T02:16:43.524Z,7.45
2019-06-10T02:19:14.241Z,8.73
2019-06-10T02:21:41.831Z,9.65
2019-06-10T02:24:12.767Z,8.03
2019-06-10T02:26:41.052Z,9.38
2019-06-10T02:29:12.481Z,8.30
2019-06-10T02:31:42.776Z,10.93
2019-06-10T02:34:12.422Z,12.35
2019-06-10T02:36:39.121Z,11.45
2019-06-10T02:39:07.865Z,8.48
2019-06-10T02:41:37.113Z,11.45
2019-06-10T02:44:06.357Z,13.38
2019-06-10T02:46:36.396Z,10.82
2019-06-10T02:49:20.911Z,13.93
2019-06-10T02:51:35.748Z,13.00
2019-06-10T02:54:04.674Z,11.75
2019-06-10T02:56:36.621Z,14.83
2019-06-10T02:59:03.522Z,12.25
2019-06-10T03:01:37.230Z,11.43
2019-06-10T03:04:04.625Z,11.28
2019-06-10T03:06:36.235Z,16.70
2019-06-10T03:09:03.751Z,13.13
2019-06-10T03:11:35.780Z,13.62
2019-06-10T03:14:02.652Z,15.10
2019-06-10T03:16:33.061Z,13.50
2019-06-10T03:19:02.923Z,11.95
2019-06-10T03:21:32.363Z,12.20
2019-06-10T03:24:02.629Z,12.63
2019-06-10T03:26:32.351Z,11.45
2019-06-10T03:29:02.681Z,10.72
2019-06-10T03:31:40.092Z,10.32
2019-06-10T03:34:04.518Z,10.75
2019-06-10T03:36:32.248Z,10.20
2019-06-10T03:39:02.605Z,12.20
2019-06-10T03:41:32.354Z,10.80
2019-06-10T03:44:02.412Z,13.70
2019-06-10T03:46:32.694Z,11.48
2019-06-10T03:49:00.227Z,11.83
2019-06-10T03:51:28.693Z,14.43
2019-06-10T03:53:56.913Z,12.58
2019-06-10T03:56:26.586Z,12.93
2019-06-10T03:58:55.112Z,11.85
2019-06-10T04:01:26.450Z,12.15
2019-06-10T04:03:53.251Z,13.15
2019-06-10T04:06:22.192Z,13.98
2019-06-10T04:08:52.256Z,12.40
2019-06-10T04:11:23.966Z,11.53
2019-06-10T04:13:50.593Z,14.43
2019-06-10T04:16:19.690Z,17.48
2019-06-10T04:18:48.469Z,10.93
2019-06-10T04:21:17.644Z,14.25
2019-06-10T04:23:45.862Z,15.40
2019-06-10T04:26:14.072Z,16.00
2019-06-10T04:28:43.078Z,13.38
2019-06-10T04:31:13.154Z,12.37
2019-06-10T04:33:42.113Z,12.20
2019-06-10T04:36:10.441Z,14.07
2019-06-10T04:38:38.645Z,14.50
2019-06-10T04:41:06.848Z,13.20
2019-06-10T04:43:35.061Z,13.30
2019-06-10T04:46:03.260Z,13.53
2019-06-10T04:48:32.752Z,12.80
2019-06-10T04:51:02.766Z,13.00
2019-06-10T04:53:33.053Z,12.70
2019-06-10T04:56:02.985Z,12.03
2019-06-10T04:58:33.344Z,11.78
2019-06-10T05:01:03.160Z,13.58
2019-06-10T05:03:32.851Z,14.55
2019-06-10T05:06:03.358Z,13.88
2019-06-10T05:08:33.672Z,13.20
2019-06-10T05:11:03.344Z,14.03
2019-06-10T05:13:33.255Z,12.75
2019-06-10T05:16:03.346Z,9.95
2019-06-10T05:18:32.742Z,11.73
2019-06-10T05:21:02.742Z,12.37
2019-06-10T05:23:33.001Z,10.32
2019-06-10T05:26:02.708Z,11.10
2019-06-10T05:28:30.665Z,8.60
2019-06-10T05:30:58.872Z,12.78
2019-06-10T05:33:27.175Z,12.63
2019-06-10T05:35:55.669Z,10.32
2019-06-10T05:38:25.893Z,10.32
2019-06-10T05:40:53.797Z,9.45
2019-06-10T05:43:23.770Z,9.28
2019-06-10T05:45:53.032Z,10.38
2019-06-10T05:48:22.679Z,12.63
2019-06-10T05:51:00.223Z,10.75
2019-06-10T05:53:23.119Z,13.72
2019-06-10T05:55:52.987Z,14.65
2019-06-10T05:58:23.169Z,15.75
2019-06-10T06:00:53.004Z,14.43
2019-06-10T06:03:22.979Z,12.40
2019-06-10T06:05:52.524Z,13.72
2019-06-10T06:08:22.807Z,12.63
2019-06-10T06:10:52.645Z,12.30
2019-06-10T06:13:23.103Z,14.03
2019-06-10T06:15:52.802Z,13.65
2019-06-10T06:18:22.589Z,13.48
2019-06-10T06:20:52.663Z,13.55
2019-06-10T06:23:22.574Z,12.40
2019-06-10T06:25:52.981Z,14.85
2019-06-10T06:28:20.217Z,13.40
2019-06-10T06:30:49.174Z,15.32
2019-06-10T06:33:17.451Z,32.28
2019-06-10T06:35:46.558Z,14.15
2019-06-10T06:38:15.060Z,17.05
2019-06-10T06:40:43.598Z,13.00
2019-06-10T06:43:12.120Z,15.30
2019-06-10T06:45:42.642Z,13.03
2019-06-10T06:48:12.348Z,14.05
2019-06-10T06:50:54.629Z,12.68
2019-06-10T06:53:21.147Z,13.78
2019-06-10T06:55:40.060Z,12.53
2019-06-10T06:58:08.260Z,13.38
2019-06-10T07:00:52.990Z,10.08
2019-06-10T07:03:06.769Z,11.88
2019-06-10T07:05:35.966Z,14.47
2019-06-10T07:08:04.892Z,10.55
2019-06-10T07:10:36.131Z,11.33
2019-06-10T07:13:05.796Z,10.90
2019-06-10T07:15:42.159Z,9.93
2019-06-10T07:18:12.875Z,11.48
2019-06-10T07:20:41.579Z,11.68
2019-06-10T07:23:10.194Z,10.60
2019-06-10T07:25:40.208Z,12.40
2019-06-10T07:28:08.321Z,12.35
2019-06-10T07:30:39.008Z,11.68
2019-06-10T07:33:06.448Z,12.00
2019-06-10T07:35:36.095Z,11.85
2019-06-10T07:38:04.573Z,12.03
2019-06-10T07:40:33.485Z,13.40
2019-06-10T07:43:02.712Z,10.43
2019-06-10T07:45:33.371Z,11.83
2019-06-10T07:48:02.868Z,10.48
2019-06-10T07:50:32.907Z,10.43
2019-06-10T07:53:02.293Z,9.13
2019-06-10T07:55:32.777Z,9.80
2019-06-10T07:58:02.562Z,11.93
2019-06-10T08:00:30.460Z,10.05
2019-06-10T08:02:59.233Z,11.45
2019-06-10T08:05:27.432Z,9.90
2019-06-10T08:07:55.641Z,11.60
2019-06-10T08:10:23.930Z,10.85
2019-06-10T08:12:52.506Z,9.50
2019-06-10T08:15:22.899Z,9.55
2019-06-10T08:17:52.923Z,9.73
2019-06-10T08:20:39.175Z,10.35
2019-06-10T08:23:07.405Z,11.03
2019-06-10T08:25:36.842Z,11.53
2019-06-10T08:28:05.103Z,9.88
2019-06-10T08:30:33.302Z,9.60
2019-06-10T08:33:03.312Z,8.88
2019-06-10T08:35:41.445Z,8.83
2019-06-10T08:38:02.470Z,11.22
2019-06-10T08:40:32.577Z,8.80
2019-06-10T08:43:00.665Z,12.40
2019-06-10T08:45:28.865Z,7.62
2019-06-10T08:47:57.081Z,7.80
2019-06-10T08:50:25.284Z,8.53
2019-06-10T08:53:09.172Z,9.88
2019-06-10T08:55:23.426Z,8.68
2019-06-10T08:57:53.908Z,7.62
2019-06-10T09:00:25.130Z,9.63
2019-06-10T09:02:53.897Z,8.98
2019-06-10T09:05:23.253Z,10.20
2019-06-10T09:07:54.400Z,8.28
2019-06-10T09:10:22.719Z,9.30
2019-06-10T09:12:54.555Z,9.73
2019-06-10T09:15:23.516Z,9.28
2019-06-10T09:17:53.456Z,10.23
2019-06-10T09:20:23.076Z,9.33
2019-06-10T09:23:13.336Z,10.00
2019-06-10T09:25:22.576Z,9.08
2019-06-10T09:27:52.465Z,10.88
2019-06-10T09:30:22.741Z,8.30
2019-06-10T09:32:53.880Z,5.70
2019-06-10T09:35:23.379Z,8.68
2019-06-10T09:37:54.945Z,8.60
2019-06-10T09:40:22.763Z,7.28
2019-06-10T09:42:53.042Z,11.25
2019-06-10T09:45:22.391Z,8.13
2019-06-10T09:47:55.521Z,10.23
2019-06-10T09:50:23.548Z,10.40
2019-06-10T09:52:56.857Z,9.60
2019-06-10T09:55:24.928Z,11.85
2019-06-10T09:57:59.643Z,12.13
2019-06-10T10:00:57.908Z,10.50
2019-06-10T10:03:25.381Z,10.15
2019-06-10T10:06:08.945Z,12.63
2019-06-10T10:08:23.917Z,11.45
2019-06-10T10:10:58.405Z,9.88
2019-06-10T10:13:22.509Z,10.95
2019-06-10T10:15:53.842Z,9.93
2019-06-10T10:18:20.688Z,9.45
2019-06-10T10:20:51.259Z,9.00
2019-06-10T10:23:18.818Z,8.68
2019-06-10T10:25:48.222Z,9.60
2019-06-10T10:28:16.944Z,9.25
2019-06-10T10:30:48.549Z,11.55
2019-06-10T10:33:15.077Z,11.70
2019-06-10T10:35:46.062Z,10.45
2019-06-10T10:38:14.431Z,8.65
2019-06-10T10:40:44.152Z,7.62
2019-06-10T10:43:25.192Z,10.95
2019-06-10T10:45:45.539Z,7.90
2019-06-10T10:48:14.076Z,7.05
2019-06-10T10:50:43.859Z,11.15
2019-06-10T10:53:12.904Z,9.95
2019-06-10T10:55:42.543Z,13.00
2019-06-10T10:58:12.847Z,8.68
2019-06-10T11:00:44.800Z,8.03
2019-06-10T11:03:13.402Z,9.03
2019-06-10T11:05:44.733Z,9.30
2019-06-10T11:08:13.534Z,7.78
2019-06-10T11:10:44.457Z,7.45
2019-06-10T11:13:11.872Z,9.05
2019-06-10T11:15:40.100Z,12.53
2019-06-10T11:18:08.300Z,8.20
2019-06-10T11:20:36.504Z,9.90
2019-06-10T11:23:04.777Z,10.85
2019-06-10T11:25:33.331Z,8.60
2019-06-10T11:28:03.959Z,8.48
2019-06-10T11:30:32.458Z,9.13
2019-06-10T11:33:03.326Z,9.03
2019-06-10T11:35:30.775Z,7.70
2019-06-10T11:37:58.981Z,7.75
2019-06-10T11:40:27.184Z,9.50
2019-06-10T11:42:59.234Z,9.33
2019-06-10T11:45:26.091Z,14.38
2019-06-10T11:47:56.642Z,8.75
2019-06-10T11:50:24.266Z,11.63
2019-06-10T11:52:55.491Z,11.18
2019-06-10T11:55:23.786Z,10.40
2019-06-10T11:57:54.922Z,11.40
2019-06-10T12:00:23.254Z,10.53
2019-06-10T12:02:53.757Z,9.88
2019-06-10T12:05:23.500Z,9.38
2019-06-10T12:07:55.995Z,10.10
2019-06-10T12:10:23.511Z,10.98
2019-06-10T12:12:56.372Z,14.83
2019-06-10T12:15:22.663Z,11.35
2019-06-10T12:17:59.846Z,10.32
2019-06-10T12:20:22.841Z,13.18
2019-06-10T12:22:54.458Z,13.22
2019-06-10T12:25:34.805Z,13.40
2019-06-10T12:27:55.081Z,12.37
2019-06-10T12:30:22.390Z,8.03
2019-06-10T12:32:55.259Z,8.53
2019-06-10T12:35:22.971Z,10.95
2019-06-10T12:37:52.031Z,13.30
2019-06-10T12:40:20.572Z,10.60
2019-06-10T12:42:48.796Z,8.68
2019-06-10T12:45:17.012Z,12.45
2019-06-10T12:47:45.212Z,11.03
2019-06-10T12:50:13.657Z,12.35
2019-06-10T12:52:41.876Z,11.88
2019-06-10T12:55:12.404Z,12.82
2019-06-10T12:57:40.030Z,11.50
2019-06-10T13:00:20.488Z,15.85
2019-06-10T13:02:42.601Z,11.73
2019-06-10T13:05:12.184Z,10.35
2019-06-10T13:07:42.732Z,13.83
2019-06-10T13:10:12.116Z,9.90
2019-06-10T13:12:42.760Z,9.05
2019-06-10T13:15:10.560Z,11.03
2019-06-10T13:17:38.846Z,13.28
2019-06-10T13:20:08.318Z,9.18
2019-06-10T13:22:36.668Z,10.85
2019-06-10T13:25:06.893Z,9.98
2019-06-10T13:27:35.205Z,12.18
2019-06-10T13:30:08.393Z,12.45
2019-06-10T13:32:36.877Z,11.20
2019-06-10T13:35:06.366Z,14.15
2019-06-10T13:37:35.838Z,9.55
2019-06-10T13:40:08.550Z,11.73
2019-06-10T13:42:36.877Z,10.10
2019-06-10T13:45:09.835Z,11.33
2019-06-10T13:50:09.506Z,13.43
2019-06-10T13:52:37.202Z,17.45
2019-06-10T13:55:09.647Z,11.55
2019-06-10T13:57:38.305Z,10.10
2019-06-10T14:00:08.540Z,17.62
2019-06-10T14:02:37.121Z,20.17
2019-06-10T14:05:12.928Z,15.75
2019-06-10T14:07:37.946Z,8.75
2019-06-10T14:10:10.882Z,10.28
2019-06-10T14:12:36.081Z,15.53
2019-06-10T14:15:08.073Z,13.45
2019-06-10T14:17:34.962Z,13.95
2019-06-10T14:20:04.124Z,14.87
2019-06-10T14:22:32.900Z,10.90
2019-06-10T14:25:03.363Z,11.18
2019-06-10T14:27:31.060Z,12.15
2019-06-10T14:29:59.261Z,10.90
2019-06-10T14:32:27.464Z,11.43
2019-06-10T14:34:55.680Z,10.55
2019-06-10T14:37:33.130Z,12.40
2019-06-10T14:39:53.804Z,10.15
2019-06-10T14:42:23.110Z,10.38
2019-06-10T14:44:52.687Z,10.13
2019-06-10T14:47:23.001Z,11.40
2019-06-10T14:49:52.902Z,13.50
2019-06-10T14:52:22.739Z,11.83
2019-06-10T14:54:53.062Z,12.98
2019-06-10T14:57:22.671Z,10.50
2019-06-10T14:59:52.978Z,13.22
2019-06-10T15:02:20.525Z,17.20
2019-06-10T15:04:48.729Z,12.90
2019-06-10T15:07:16.936Z,11.45
2019-06-10T15:09:45.136Z,14.98
2019-06-10T15:12:14.664Z,13.13
2019-06-10T15:14:43.286Z,10.63
2019-06-10T15:17:12.474Z,9.08
2019-06-10T15:19:42.548Z,12.13
2019-06-10T15:22:12.634Z,9.85
2019-06-10T15:24:42.822Z,10.82
2019-06-10T15:27:21.608Z,12.98
2019-06-10T15:29:42.997Z,12.15
2019-06-10T15:32:25.948Z,13.78
2019-06-10T15:34:42.900Z,12.58
2019-06-10T15:37:11.762Z,12.98
2019-06-10T15:39:42.298Z,11.38
2019-06-10T15:42:11.527Z,12.28
2019-06-10T15:44:52.049Z,17.98
2019-06-10T15:47:10.694Z,16.30
2019-06-10T15:49:39.969Z,6.35
2019-06-10T15:52:08.173Z,5.60
2019-06-10T15:54:36.396Z,5.55
2019-06-10T15:57:05.492Z,5.55
2019-06-10T15:59:33.716Z,3.98
2019-06-10T16:02:02.645Z,3.27
2019-06-10T16:04:35.023Z,4.83
2019-06-10T16:07:02.562Z,3.62
2019-06-10T16:09:32.150Z,5.97
2019-06-10T16:12:02.753Z,2.95
2019-06-10T16:14:33.022Z,6.80
2019-06-10T16:17:02.982Z,4.85
2019-06-10T16:19:32.797Z,5.20
2019-06-10T16:22:03.034Z,3.47
2019-06-10T16:24:33.098Z,6.42
2019-06-10T16:27:00.549Z,14.20
2019-06-10T16:29:28.781Z,12.20
2019-06-10T16:31:57.015Z,9.95
2019-06-10T16:34:28.822Z,10.65
2019-06-10T16:36:55.161Z,11.88
2019-06-10T16:39:24.142Z,9.65
2019-06-10T16:41:53.329Z,14.03
2019-06-10T16:44:25.984Z,12.05
2019-06-10T16:46:52.687Z,10.98
2019-06-10T16:49:21.421Z,13.03
2019-06-10T16:51:51.782Z,12.75
2019-06-10T16:54:19.619Z,10.45
2019-06-10T16:56:47.821Z,13.30
2019-06-10T16:59:16.036Z,14.23
2019-06-10T17:01:44.241Z,14.20
2019-06-10T17:04:12.636Z,16.30
2019-06-10T17:06:42.191Z,15.23
2019-06-10T17:09:10.554Z,18.15
2019-06-10T17:11:38.777Z,13.85
2019-06-10T17:14:06.964Z,12.58
2019-06-10T17:16:35.168Z,18.00
2019-06-10T17:19:03.394Z,12.23
2019-06-10T17:21:34.533Z,10.15
2019-06-10T17:24:03.472Z,13.10
2019-06-10T17:26:37.448Z,9.03
2019-06-10T17:29:02.824Z,12.35
2019-06-10T17:31:34.876Z,10.32
2019-06-10T17:34:02.735Z,11.75
2019-06-10T17:36:35.045Z,12.88
2019-06-10T17:39:03.061Z,10.65
2019-06-10T17:41:35.031Z,8.58
2019-06-10T17:44:02.619Z,11.28
2019-06-10T17:46:34.417Z,8.63
2019-06-10T17:49:02.651Z,10.75
2019-06-10T17:51:31.693Z,12.73
2019-06-10T17:54:02.411Z,10.23
2019-06-10T17:56:31.870Z,9.73
2019-06-10T17:59:03.156Z,11.80
2019-06-10T18:01:31.761Z,7.97
2019-06-10T18:04:02.549Z,8.78
2019-06-10T18:06:32.071Z,10.20
2019-06-10T18:09:00.404Z,9.03
2019-06-10T18:11:29.845Z,8.10
2019-06-10T18:13:58.616Z,11.18
2019-06-10T18:16:28.145Z,17.57
2019-06-10T18:18:56.461Z,12.82
2019-06-10T18:21:24.685Z,8.08
2019-06-10T18:23:53.026Z,7.12
2019-06-10T18:26:23.162Z,10.78
2019-06-10T18:29:01.912Z,8.25
2019-06-10T18:31:23.352Z,9.23
2019-06-10T18:33:53.044Z,7.03
2019-06-10T18:36:24.199Z,8.73
2019-06-10T18:38:52.664Z,8.83
2019-06-10T18:41:22.300Z,8.78
2019-06-10T18:43:50.661Z,6.83
2019-06-10T18:46:18.913Z,11.80
2019-06-10T18:48:47.147Z,9.70
2019-06-10T18:51:15.375Z,6.85
2019-06-10T18:53:43.658Z,9.18
2019-06-10T18:56:12.822Z,8.15
2019-06-10T18:58:42.472Z,6.42
2019-06-10T19:01:12.393Z,8.05
2019-06-10T19:03:42.985Z,8.90
2019-06-10T19:06:12.583Z,8.88
2019-06-10T19:08:43.426Z,9.10
2019-06-10T19:11:10.623Z,8.15
2019-06-10T19:13:40.311Z,7.65
2019-06-10T19:16:08.755Z,8.15
2019-06-10T19:18:38.073Z,7.50
2019-06-10T19:21:08.833Z,12.20
2019-06-10T19:23:37.822Z,12.23
2019-06-10T19:26:06.469Z,9.83
2019-06-10T19:28:37.148Z,12.40
2019-06-10T19:31:04.622Z,8.53
2019-06-10T19:33:35.863Z,8.70
2019-06-10T19:36:02.765Z,9.45
2019-06-10T19:38:32.450Z,10.32
2019-06-10T19:41:02.706Z,8.30
2019-06-10T19:43:33.331Z,8.83
2019-06-10T19:46:04.289Z,9.68
2019-06-10T19:48:35.401Z,9.95
2019-06-10T19:51:02.923Z,10.32
2019-06-10T19:53:32.600Z,11.15
2019-06-10T19:56:02.526Z,8.80
2019-06-10T19:58:32.370Z,10.20
2019-06-10T20:01:00.372Z,9.18
2019-06-10T20:03:28.659Z,8.28
2019-06-10T20:05:56.882Z,8.60
2019-06-10T20:08:25.068Z,10.35
2019-06-10T20:10:53.396Z,9.48
2019-06-10T20:13:22.988Z,10.18
2019-06-10T20:15:52.533Z,9.03
2019-06-10T20:18:22.671Z,8.08
2019-06-10T20:20:53.737Z,9.90
2019-06-10T20:23:20.699Z,9.05
2019-06-10T20:25:48.953Z,11.08
2019-06-10T20:28:17.206Z,7.33
2019-06-10T20:30:47.774Z,12.78
2019-06-10T20:33:16.993Z,10.58
2019-06-10T20:35:45.713Z,9.58
2019-06-10T20:38:13.998Z,9.65
2019-06-10T20:40:43.101Z,10.10
2019-06-10T20:43:13.221Z,8.15
2019-06-10T20:45:44.236Z,8.70
2019-06-10T20:48:11.548Z,10.25
2019-06-10T20:50:40.986Z,8.85
2019-06-10T20:53:15.493Z,11.80
2019-06-10T20:55:46.343Z,9.20
2019-06-10T20:58:12.298Z,9.38
2019-06-10T21:00:41.938Z,7.72
2019-06-10T21:03:09.975Z,8.95
2019-06-10T21:05:39.597Z,9.30
2019-06-10T21:08:07.988Z,11.22
2019-06-10T21:10:37.040Z,10.10
2019-06-10T21:13:06.058Z,9.93
2019-06-10T21:15:37.816Z,9.25
2019-06-10T21:18:06.098Z,8.58
2019-06-10T21:20:34.375Z,7.90
2019-06-10T21:23:03.225Z,9.45
2019-06-10T21:25:32.456Z,8.20
2019-06-10T21:28:03.224Z,8.83
2019-06-10T21:30:38.431Z,8.45
2019-06-10T21:33:03.484Z,7.10
2019-06-10T21:35:30.864Z,9.55
2019-06-10T21:37:59.077Z,10.53
2019-06-10T21:40:27.277Z,9.33
2019-06-10T21:42:55.491Z,8.10
2019-06-10T21:45:23.696Z,7.90
2019-06-10T21:47:53.310Z,12.20
2019-06-10T21:50:22.710Z,9.23
2019-06-10T21:52:53.100Z,9.98
2019-06-10T21:55:22.440Z,9.58
2019-06-10T21:57:53.181Z,7.67
2019-06-10T22:00:23.364Z,11.80
2019-06-10T22:02:58.039Z,11.22
2019-06-10T22:05:22.490Z,11.30
2019-06-10T22:07:54.891Z,7.83
2019-06-10T22:10:22.835Z,9.55
2019-06-10T22:12:52.760Z,10.00
2019-06-10T22:15:22.582Z,10.85
2019-06-10T22:17:52.961Z,12.75
2019-06-10T22:20:22.667Z,10.45
2019-06-10T22:22:53.207Z,12.03
2019-06-10T22:25:22.330Z,10.93
2019-06-10T22:27:50.268Z,9.90
2019-06-10T22:30:18.472Z,13.20
2019-06-10T22:32:47.265Z,11.15
2019-06-10T22:35:15.464Z,10.88
2019-06-10T22:37:43.672Z,12.05
2019-06-10T22:40:12.453Z,16.30
2019-06-10T22:42:40.662Z,14.20
2019-06-10T22:45:08.868Z,15.88
2019-06-10T22:47:37.077Z,17.48
2019-06-10T22:50:07.686Z,16.48
2019-06-10T22:52:36.109Z,17.55
2019-06-10T22:55:06.122Z,16.02
2019-06-10T22:57:35.971Z,16.35
2019-06-10T23:00:07.438Z,16.32
2019-06-10T23:02:35.650Z,15.72
2019-06-10T23:05:05.769Z,15.70
2019-06-10T23:07:33.962Z,14.78
2019-06-10T23:10:03.238Z,13.58
2019-06-10T23:12:31.654Z,16.12
2019-06-10T23:14:59.869Z,13.68
2019-06-10T23:17:28.088Z,15.50
2019-06-10T23:19:56.901Z,16.40
2019-06-10T23:22:26.284Z,16.52
2019-06-10T23:24:55.425Z,19.35
2019-06-10T23:27:23.889Z,16.67
2019-06-10T23:29:53.912Z,23.35
2019-06-10T23:32:22.230Z,20.35
2019-06-10T23:34:54.060Z,20.10
2019-06-10T23:37:22.806Z,19.25
2019-06-10T23:39:50.704Z,18.92
2019-06-10T23:42:18.967Z,20.72
2019-06-10T23:44:47.172Z,21.30
2019-06-10T23:47:15.376Z,19.87
2019-06-10T23:49:43.593Z,21.05
2019-06-10T23:52:12.786Z,18.30
2019-06-10T23:54:41.088Z,19.55
2019-06-10T23:57:09.308Z,20.77
2019-06-10T23:59:37.517Z,22.87
